Time;durP1;ratioP1;P1;durP2;ratioP2;P2;SDS_P1;SDS_P2;PMS_P1;PMS_P2;Temp;Humidity;BMP_temperature;BMP_pressure;BME280_temperature;BME280_humidity;BME280_pressure;Samples;Min_cycle;Max_cycle;Signal;HPM_P1;HPM_P2
2022/11/21 00:00:39;;;;;;;85.87;41.73;;;;;;;-1.10;65.28;99435.53;4931608;28;100947;-81
2022/11/21 00:03:04;;;;;;;80.97;41.67;;;;;;;-1.11;65.44;99431.22;4920833;28;96689;-81
2022/11/21 00:05:31;;;;;;;84.83;41.43;;;;;;;-1.12;65.74;99432.06;4938210;28;97335;-81
2022/11/21 00:07:56;;;;;;;90.37;43.40;;;;;;;-1.13;65.21;99432.94;4920454;28;101186;-82
2022/11/21 00:10:23;;;;;;;90.87;43.80;;;;;;;-1.10;64.87;99435.53;4937968;28;97894;-81
2022/11/21 00:12:55;;;;;;;88.47;44.67;;;;;;;-1.10;65.12;99434.66;4936894;28;96789;-81
2022/11/21 00:15:23;;;;;;;90.97;43.77;;;;;;;-1.20;64.98;99428.63;4921567;28;97331;-81
2022/11/21 00:17:48;;;;;;;83.37;42.10;;;;;;;-1.14;65.77;99434.63;4936617;28;101117;-81
2022/11/21 00:20:14;;;;;;;92.10;42.20;;;;;;;-1.22;65.39;99420.94;4936783;28;101293;-81
2022/11/21 00:22:40;;;;;;;81.97;39.43;;;;;;;-1.21;65.72;99430.38;4941072;28;96734;-81
2022/11/21 00:25:06;;;;;;;84.73;41.33;;;;;;;-1.25;65.53;99433.81;4936808;28;97616;-81
2022/11/21 00:27:31;;;;;;;83.53;38.80;;;;;;;-1.28;65.85;99409.75;4937248;28;101288;-82
2022/11/21 00:29:57;;;;;;;80.30;38.20;;;;;;;-1.29;65.91;99401.19;4954407;28;98525;-82
2022/11/21 00:32:22;;;;;;;79.87;37.63;;;;;;;-1.23;65.73;99415.78;4920918;28;96692;-81
2022/11/21 00:34:48;;;;;;;83.77;40.77;;;;;;;-1.29;65.99;99400.31;4920792;28;96835;-81
2022/11/21 00:37:13;;;;;;;84.57;41.23;;;;;;;-1.21;65.66;99404.59;4919761;28;102078;-80
2022/11/21 00:39:39;;;;;;;76.23;38.43;;;;;;;-1.15;65.79;99426.94;4920879;28;101860;-80
2022/11/21 00:42:04;;;;;;;84.53;40.23;;;;;;;-1.17;66.10;99416.63;4936754;28;97054;-82
2022/11/21 00:44:30;;;;;;;81.90;38.90;;;;;;;-1.14;66.09;99418.34;4955281;28;97988;-81
2022/11/21 00:46:55;;;;;;;77.57;37.23;;;;;;;-1.25;65.81;99397.75;4919921;28;101617;-81
2022/11/21 00:49:21;;;;;;;87.87;41.53;;;;;;;-1.11;66.02;99415.75;4956815;28;97653;-82
2022/11/21 00:51:46;;;;;;;86.20;40.77;;;;;;;-1.58;65.70;99343.72;4936028;28;97153;-82
2022/11/21 00:54:12;;;;;;;86.40;38.63;;;;;;;-1.07;65.88;99416.63;4921427;28;96934;-81
2022/11/21 00:56:37;;;;;;;88.83;40.23;;;;;;;-1.55;66.56;99365.16;4935236;28;101630;-81
2022/11/21 00:59:03;;;;;;;91.27;41.53;;;;;;;-1.23;66.43;99420.91;4946233;28;101912;-82
2022/11/21 01:01:28;;;;;;;88.67;39.83;;;;;;;-1.37;66.61;99401.19;4920132;28;96993;-81
2022/11/21 01:03:54;;;;;;;88.87;40.47;;;;;;;-1.16;66.34;99405.47;4920298;28;97136;-81
2022/11/21 01:06:19;;;;;;;79.87;36.63;;;;;;;-1.21;66.04;99388.31;4920583;28;101102;-81
2022/11/21 01:08:45;;;;;;;83.60;37.73;;;;;;;-1.40;65.98;99343.69;4936505;28;97475;-83
2022/11/21 01:11:13;;;;;;;80.60;36.70;;;;;;;-1.15;66.02;99370.25;4936876;28;96953;-81
2022/11/21 01:13:39;;;;;;;68.83;33.43;;;;;;;-1.27;66.33;99347.13;4920491;28;97042;-81
2022/11/21 01:16:19;;;;;;;76.73;35.97;;;;;;;-1.11;65.94;99365.97;4936448;28;97987;-81
2022/11/21 01:18:45;;;;;;;71.33;34.53;;;;;;;-1.26;66.98;99356.53;4940280;28;101625;-84
2022/11/21 01:21:16;;;;;;;74.63;36.17;;;;;;;-1.16;66.44;99364.25;4928970;28;96866;-80
2022/11/21 01:23:42;;;;;;;77.70;34.13;;;;;;;-1.09;66.85;99372.81;4920392;28;97148;-81
2022/11/21 01:26:16;;;;;;;75.20;35.17;;;;;;;-1.26;67.40;99353.97;4950942;28;101583;-82
2022/11/21 01:28:41;;;;;;;71.67;34.03;;;;;;;-1.11;67.29;99379.69;4918602;28;99569;-82
2022/11/21 01:31:17;;;;;;;74.83;35.33;;;;;;;-1.07;67.79;99367.69;4924483;28;100561;-82
2022/11/21 01:33:43;;;;;;;70.83;32.97;;;;;;;-0.99;67.33;99363.34;4899989;28;97587;-81
2022/11/21 01:36:21;;;;;;;67.87;34.23;;;;;;;-0.89;66.33;99356.47;4913867;28;101592;-81
2022/11/21 01:38:52;;;;;;;73.67;32.50;;;;;;;-1.01;66.90;99334.19;4898685;28;101510;-81
2022/11/21 01:41:22;;;;;;;73.03;31.97;;;;;;;-0.92;66.79;99347.88;4915904;28;97157;-82
2022/11/21 01:43:49;;;;;;;71.20;33.50;;;;;;;-1.00;67.26;99333.31;4899690;28;96787;-82
2022/11/21 01:46:18;;;;;;;67.07;33.30;;;;;;;-1.08;67.15;99309.28;4899769;28;101014;-82
2022/11/21 01:48:55;;;;;;;65.77;34.47;;;;;;;-0.99;67.52;99332.44;4913194;28;100832;-82
2022/11/21 01:51:31;;;;;;;64.47;33.03;;;;;;;-0.99;67.74;99338.47;4887150;28;96991;-81
2022/11/21 01:54:08;;;;;;;68.53;31.33;;;;;;;-1.07;67.63;99316.16;4897165;28;96774;-81
2022/11/21 01:56:43;;;;;;;74.60;34.17;;;;;;;-1.00;67.26;99331.56;4914740;28;101358;-81
2022/11/21 01:59:11;;;;;;;70.13;33.83;;;;;;;-0.95;67.42;99349.63;4901045;28;100724;-82
2022/11/21 02:01:37;;;;;;;72.83;33.83;;;;;;;-0.97;67.69;99341.88;4915373;28;97814;-82
2022/11/21 02:04:03;;;;;;;67.93;31.87;;;;;;;-0.80;67.45;99330.66;4931286;28;97288;-82
2022/11/21 02:06:30;;;;;;;69.67;32.40;;;;;;;-0.85;67.23;99327.25;4914801;28;100812;-81
2022/11/21 02:08:56;;;;;;;73.50;34.70;;;;;;;-0.83;67.93;99330.69;4898075;28;101746;-81
2022/11/21 02:11:37;;;;;;;67.40;32.40;;;;;;;-0.94;68.10;99312.66;4932843;28;97271;-81
2022/11/21 02:14:07;;;;;;;66.17;30.53;;;;;;;-0.97;68.10;99292.06;4913226;28;96945;-80
2022/11/21 02:16:33;;;;;;;68.53;31.80;;;;;;;-0.79;68.33;99311.75;4899373;28;101592;-81
2022/11/21 02:18:59;;;;;;;65.60;31.07;;;;;;;-0.87;68.37;99301.50;4914959;28;101564;-81
2022/11/21 02:21:49;;;;;;;62.13;30.70;;;;;;;-0.81;68.00;99304.03;4916845;28;96679;-81
2022/11/21 02:24:20;;;;;;;63.07;29.73;;;;;;;-0.68;68.46;99316.00;4918167;28;96790;-81
2022/11/21 02:26:47;;;;;;;69.10;31.87;;;;;;;-0.63;68.02;99304.81;4880711;28;101917;-82
2022/11/21 02:29:14;;;;;;;70.00;32.37;;;;;;;-0.77;68.16;99263.66;4906649;28;98127;-82
2022/11/21 02:31:39;;;;;;;58.10;29.77;;;;;;;-0.66;68.50;99281.66;4929464;28;96770;-82
2022/11/21 02:34:05;;;;;;;59.53;29.17;;;;;;;-0.71;68.17;99271.34;4935679;28;96870;-82
2022/11/21 02:36:30;;;;;;;60.10;28.87;;;;;;;-0.55;68.03;99292.75;4947769;28;97429;-81
2022/11/21 02:38:56;;;;;;;57.23;28.63;;;;;;;-0.64;68.16;99270.47;4924120;28;101227;-81
2022/11/21 02:41:25;;;;;;;57.93;29.40;;;;;;;-0.61;68.54;99261.81;4945321;28;97123;-80
2022/11/21 02:43:58;;;;;;;53.27;27.00;;;;;;;-0.58;68.86;99272.13;4918942;28;96810;-82
2022/11/21 02:46:26;;;;;;;55.40;27.87;;;;;;;-0.57;68.64;99263.53;4931886;28;101393;-81
2022/11/21 02:48:51;;;;;;;53.43;26.83;;;;;;;-0.64;69.24;99252.41;4909156;28;101848;-81
2022/11/21 02:51:17;;;;;;;50.57;25.00;;;;;;;-0.69;69.12;99229.22;4942940;28;97281;-80
2022/11/21 02:53:42;;;;;;;52.30;23.77;;;;;;;-0.56;69.15;99242.03;4934963;28;97403;-80
2022/11/21 02:56:08;;;;;;;49.87;24.83;;;;;;;-0.44;69.22;99254.00;4924546;28;101049;-81
2022/11/21 02:58:33;;;;;;;51.67;25.30;;;;;;;-0.41;69.58;99252.25;4947442;28;97485;-81
2022/11/21 03:00:58;;;;;;;49.90;26.27;;;;;;;-0.41;69.30;99246.25;4935028;28;97064;-82
2022/11/21 03:03:24;;;;;;;51.93;25.93;;;;;;;-0.43;69.82;99235.94;4921921;28;96901;-81
2022/11/21 03:05:49;;;;;;;48.33;24.77;;;;;;;-0.53;69.74;99203.34;4950455;28;98775;-82
2022/11/21 03:08:15;;;;;;;47.77;26.43;;;;;;;-0.37;69.52;99232.47;4939861;28;98280;-81
2022/11/21 03:10:40;;;;;;;49.23;24.07;;;;;;;-0.31;70.04;99235.84;4932861;28;96738;-81
2022/11/21 03:13:06;;;;;;;51.70;24.40;;;;;;;-0.48;70.09;99214.50;4951598;28;96799;-81
2022/11/21 03:15:33;;;;;;;45.47;24.43;;;;;;;-0.57;70.28;99196.50;4918775;28;101691;-81
2022/11/21 03:18:01;;;;;;;50.50;25.13;;;;;;;-0.34;70.17;99225.56;4934280;28;98048;-82
2022/11/21 03:20:27;;;;;;;46.43;24.17;;;;;;;-0.37;70.75;99211.84;4938748;28;97358;-80
2022/11/21 03:22:53;;;;;;;47.10;23.43;;;;;;;-0.39;70.45;99206.69;4934508;28;97027;-81
2022/11/21 03:25:19;;;;;;;47.20;24.37;;;;;;;-0.33;70.64;99208.38;4923376;28;97412;-81
2022/11/21 03:27:44;;;;;;;43.53;22.77;;;;;;;-0.40;70.49;99192.09;4930778;28;101258;-80
2022/11/21 03:30:10;;;;;;;48.77;26.10;;;;;;;-0.22;70.37;99195.38;4916750;28;96975;-81
2022/11/21 03:32:36;;;;;;;48.57;25.17;;;;;;;-0.32;70.42;99200.63;4951384;28;96746;-80
2022/11/21 03:35:01;;;;;;;45.30;24.00;;;;;;;-0.25;70.07;99202.28;4949965;28;101107;-81
2022/11/21 03:37:27;;;;;;;47.47;24.27;;;;;;;-0.27;70.27;99175.63;4934308;28;102120;-81
2022/11/21 03:39:52;;;;;;;49.00;24.53;;;;;;;-0.14;70.50;99186.72;4918256;28;96666;-81
2022/11/21 03:42:18;;;;;;;47.47;23.70;;;;;;;-0.25;70.41;99168.75;4931086;28;97020;-81
2022/11/21 03:44:43;;;;;;;46.57;23.70;;;;;;;-0.26;70.79;99159.31;4934038;28;101642;-80
2022/11/21 03:47:09;;;;;;;47.77;24.43;;;;;;;-0.34;70.60;99145.63;4933824;28;101189;-81
2022/11/21 03:49:34;;;;;;;47.30;24.33;;;;;;;-0.21;70.83;99143.78;4932305;28;96673;-80
2022/11/21 03:52:00;;;;;;;46.03;24.37;;;;;;;-0.46;70.89;99104.47;4898734;28;97045;-81
2022/11/21 03:54:25;;;;;;;50.13;25.30;;;;;;;-0.24;71.14;99156.69;4911592;28;101487;-81
2022/11/21 03:56:51;;;;;;;50.33;25.70;;;;;;;-0.24;71.48;99142.06;4933247;28;101267;-82
2022/11/21 03:59:16;;;;;;;49.07;24.97;;;;;;;-0.22;71.82;99143.81;4934699;28;96851;-81
2022/11/21 04:01:41;;;;;;;50.43;25.93;;;;;;;-0.09;70.86;99145.38;4934131;28;96843;-81
2022/11/21 04:04:07;;;;;;;46.90;25.23;;;;;;;-0.18;71.05;99141.16;4930541;28;101097;-82
2022/11/21 04:06:32;;;;;;;51.30;25.20;;;;;;;-0.29;71.95;99119.78;4932499;28;101083;-81
2022/11/21 04:08:58;;;;;;;47.37;23.87;;;;;;;-0.20;71.24;99131.72;4905782;28;97124;-81
2022/11/21 04:11:23;;;;;;;49.27;25.47;;;;;;;-0.15;71.86;99133.41;4934762;28;97199;-81
2022/11/21 04:13:52;;;;;;;48.33;24.53;;;;;;;-0.13;72.24;99136.81;4930722;28;97937;-81
2022/11/21 04:16:18;;;;;;;48.60;25.03;;;;;;;-0.30;71.82;99100.03;4941956;28;100869;-81
2022/11/21 04:18:43;;;;;;;49.00;25.27;;;;;;;-0.04;71.88;99123.84;4917606;28;96730;-80
2022/11/21 04:21:09;;;;;;;46.53;24.93;;;;;;;-0.01;71.65;99122.94;4924335;28;97051;-81
2022/11/21 04:23:34;;;;;;;46.33;23.70;;;;;;;-0.14;72.14;99116.22;4927848;28;97961;-81
2022/11/21 04:26:00;;;;;;;48.57;25.23;;;;;;;-0.16;71.97;99105.91;4906044;28;101393;-81
2022/11/21 04:28:26;;;;;;;44.63;23.93;;;;;;;-0.11;72.45;99106.72;4934068;28;97282;-82
2022/11/21 04:30:51;;;;;;;46.00;25.63;;;;;;;-0.13;72.10;99102.44;4913913;28;97655;-83
2022/11/21 04:33:17;;;;;;;49.03;24.73;;;;;;;-0.14;72.50;99093.00;4933842;28;98341;-82
2022/11/21 04:35:44;;;;;;;47.93;25.30;;;;;;;-0.11;72.19;99093.81;4934024;28;101393;-81
2022/11/21 04:38:10;;;;;;;56.50;26.03;;;;;;;-0.10;72.54;99098.09;4935229;28;96774;-81
2022/11/21 04:40:36;;;;;;;43.40;25.17;;;;;;;-0.07;71.96;99097.22;4921152;28;96893;-81
2022/11/21 04:43:02;;;;;;;50.47;24.53;;;;;;;-0.13;72.20;99085.22;4951797;28;101206;-81
2022/11/21 04:45:27;;;;;;;49.50;25.47;;;;;;;-0.07;72.13;99080.00;4920788;28;101158;-81
2022/11/21 04:47:53;;;;;;;47.23;24.83;;;;;;;-0.10;72.37;99081.78;4936173;28;97373;-83
2022/11/21 04:50:19;;;;;;;48.60;24.97;;;;;;;-0.26;72.76;99055.28;4917838;28;96868;-81
2022/11/21 04:52:52;;;;;;;45.33;23.57;;;;;;;-0.05;72.60;99080.84;4914149;28;101075;-81
2022/11/21 04:55:18;;;;;;;51.47;24.77;;;;;;;-0.09;73.08;99080.88;4920419;28;101291;-80
2022/11/21 04:57:44;;;;;;;49.60;25.27;;;;;;;0.05;71.88;99076.44;4918739;28;97404;-81
2022/11/21 05:00:11;;;;;;;48.43;24.53;;;;;;;-0.05;72.39;99072.25;4909690;28;97199;-81
2022/11/21 05:02:36;;;;;;;46.83;25.53;;;;;;;-0.04;72.54;99059.31;4919919;28;101870;-81
2022/11/21 05:05:02;;;;;;;49.47;24.97;;;;;;;-0.02;72.16;99065.34;4919618;28;101159;-80
2022/11/21 05:07:27;;;;;;;50.00;25.23;;;;;;;0.05;72.11;99058.38;4936141;28;97207;-81
2022/11/21 05:09:53;;;;;;;54.17;26.90;;;;;;;0.07;72.30;99055.78;4936320;28;96939;-82
2022/11/21 05:15:02;;;;;;;48.33;24.87;;;;;;;-0.06;72.83;99055.94;4938556;28;101210;-82
2022/11/21 05:17:28;;;;;;;48.33;24.37;;;;;;;-0.05;72.24;99044.72;4924270;28;97263;-81
2022/11/21 05:19:54;;;;;;;47.30;24.67;;;;;;;0.06;72.71;99056.63;4942682;28;97121;-83
2022/11/21 05:22:19;;;;;;;49.67;26.10;;;;;;;0.01;72.50;99051.56;4918865;28;101549;-81
2022/11/21 05:24:45;;;;;;;46.63;25.73;;;;;;;-0.09;72.82;99037.03;4932499;28;101475;-82
2022/11/21 05:27:10;;;;;;;48.50;25.33;;;;;;;-0.06;73.22;99030.13;4918661;28;96731;-81
2022/11/21 05:29:35;;;;;;;47.97;25.17;;;;;;;0.00;72.95;99031.78;4936576;28;96857;-81
2022/11/21 05:32:01;;;;;;;49.23;25.67;;;;;;;-0.18;72.74;99008.75;4934612;28;97668;-81
2022/11/21 05:34:26;;;;;;;49.27;24.43;;;;;;;0.04;73.13;99027.44;4936253;28;100667;-81
2022/11/21 05:36:58;;;;;;;46.90;25.60;;;;;;;0.01;72.54;99001.69;4948894;28;97006;-80
2022/11/21 05:39:24;;;;;;;48.70;25.10;;;;;;;0.11;72.66;99029.91;4918226;28;97128;-81
2022/11/21 05:41:49;;;;;;;49.83;26.67;;;;;;;0.22;72.42;99029.78;4932862;28;101279;-81
2022/11/21 05:44:15;;;;;;;47.30;25.17;;;;;;;0.13;72.42;99001.50;4929834;28;101661;-82
2022/11/21 05:46:40;;;;;;;47.53;25.93;;;;;;;0.10;72.54;99007.56;4932824;28;96726;-82
2022/11/21 05:49:05;;;;;;;49.97;25.57;;;;;;;0.20;72.12;99005.72;4929941;28;96752;-80
2022/11/21 05:51:31;;;;;;;45.20;24.07;;;;;;;0.10;72.50;99004.97;4922338;28;101957;-80
2022/11/21 05:53:58;;;;;;;43.07;23.83;;;;;;;0.11;73.02;99005.84;4932208;28;100942;-82
2022/11/21 05:56:23;;;;;;;50.07;26.23;;;;;;;0.28;72.08;98993.56;4933267;28;97360;-82
2022/11/21 05:58:49;;;;;;;44.73;24.80;;;;;;;0.09;72.08;98980.06;4952437;28;97168;-81
2022/11/21 06:01:14;;;;;;;42.10;23.63;;;;;;;0.09;72.17;98979.19;4921114;28;101220;-81
2022/11/21 06:03:41;;;;;;;44.77;23.93;;;;;;;0.12;72.54;98984.34;4938283;28;101201;-87
2022/11/21 06:06:07;;;;;;;40.77;22.13;;;;;;;0.19;72.76;98991.09;4928175;28;97248;-88
2022/11/21 06:08:35;;;;;;;42.93;23.67;;;;;;;0.19;72.59;98983.38;4920015;28;96807;-81
2022/11/21 06:11:02;;;;;;;43.23;23.23;;;;;;;0.16;72.77;98988.56;4919006;28;101054;-82
2022/11/21 06:13:27;;;;;;;46.70;23.20;;;;;;;0.01;72.50;98942.34;4919675;28;100212;-81
2022/11/21 06:16:17;;;;;;;42.00;22.53;;;;;;;0.39;72.45;98983.09;4936242;28;97268;-93
2022/11/21 06:18:44;;;;;;;39.60;22.30;;;;;;;0.26;72.41;98974.66;4926926;28;97158;-88
2022/11/21 06:21:23;;;;;;;42.93;22.87;;;;;;;0.09;72.71;98961.13;4936052;28;98439;-89
2022/11/21 06:23:50;;;;;;;41.67;22.83;;;;;;;0.21;72.57;98961.81;4929839;28;100521;-90
2022/11/21 06:26:17;;;;;;;41.47;22.47;;;;;;;0.19;72.97;98966.16;4933270;28;96660;-89
2022/11/21 06:28:44;;;;;;;41.73;21.93;;;;;;;0.27;72.44;98976.38;4954353;28;97325;-89
2022/11/21 06:31:11;;;;;;;42.87;23.73;;;;;;;0.08;72.92;98942.22;4931306;28;98546;-89
2022/11/21 06:33:37;;;;;;;41.27;21.77;;;;;;;0.21;72.73;98961.81;4953446;28;98384;-87
2022/11/21 06:36:14;;;;;;;39.10;22.40;;;;;;;-0.04;72.72;98908.84;4929577;28;97405;-88
2022/11/21 06:38:39;;;;;;;43.30;23.90;;;;;;;0.12;72.83;98943.91;4936351;28;97290;-88
2022/11/21 06:41:07;;;;;;;44.30;23.70;;;;;;;0.31;73.28;98977.19;4917302;28;99975;-88
2022/11/21 06:43:32;;;;;;;37.97;20.73;;;;;;;0.31;72.59;98965.13;4929158;28;100246;-86
2022/11/21 06:45:58;;;;;;;47.23;23.17;;;;;;;0.40;72.73;98961.56;4941559;28;96749;-82
2022/11/21 06:48:24;;;;;;;41.43;22.57;;;;;;;0.44;72.21;98964.09;4950560;28;96724;-81
2022/11/21 06:50:50;;;;;;;43.63;22.67;;;;;;;0.38;72.45;98976.25;4934868;28;101951;-87
2022/11/21 06:53:15;;;;;;;40.23;23.03;;;;;;;0.10;72.94;98940.47;4948790;28;101610;-83
2022/11/21 06:55:41;;;;;;;40.07;21.83;;;;;;;0.06;72.75;98931.06;4932627;28;96756;-90
2022/11/21 06:58:07;;;;;;;42.57;22.43;;;;;;;0.27;72.37;98934.22;4935935;28;97320;-90
2022/11/21 07:00:32;;;;;;;40.70;22.37;;;;;;;0.41;72.36;98969.28;4919618;28;101294;-89
2022/11/21 07:03:01;;;;;;;38.57;21.13;;;;;;;0.28;72.77;98962.59;4933533;28;99689;-89
2022/11/21 07:05:27;;;;;;;40.63;20.73;;;;;;;0.37;73.09;98965.03;4916982;28;96826;-89
2022/11/21 07:08:00;;;;;;;38.83;21.80;;;;;;;0.41;72.96;98974.47;4932317;28;96833;-90
2022/11/21 07:10:26;;;;;;;42.67;22.40;;;;;;;0.28;72.24;98938.50;4920062;28;100690;-89
2022/11/21 07:15:35;;;;;;;39.67;20.80;;;;;;;0.49;72.59;98970.91;4933226;28;96926;-89
2022/11/21 07:18:01;;;;;;;38.53;20.77;;;;;;;0.51;72.95;98961.41;4920110;28;97306;-88
2022/11/21 07:20:27;;;;;;;39.57;21.87;;;;;;;0.50;72.51;98960.56;4933254;28;97330;-89
2022/11/21 07:22:54;;;;;;;40.73;21.67;;;;;;;0.58;73.10;98970.75;4929898;28;97892;-89
2022/11/21 07:25:20;;;;;;;37.63;22.50;;;;;;;0.72;72.38;98973.13;4934215;28;97320;-85
2022/11/21 07:27:45;;;;;;;40.07;21.73;;;;;;;0.59;72.41;98952.66;4936291;28;97089;-87
2022/11/21 07:30:11;;;;;;;44.00;23.07;;;;;;;0.68;72.16;98980.94;4918761;28;101249;-87
2022/11/21 07:32:37;;;;;;;43.63;23.03;;;;;;;0.67;72.48;98974.06;4919870;28;101774;-87
2022/11/21 07:35:03;;;;;;;43.57;23.93;;;;;;;0.73;72.13;98985.16;4918124;28;97202;-87
2022/11/21 07:37:28;;;;;;;47.80;23.53;;;;;;;0.71;72.57;98981.78;4949472;28;97376;-87
2022/11/21 07:39:54;;;;;;;51.97;27.97;;;;;;;0.56;72.34;98944.13;4934363;28;101138;-87
2022/11/21 07:42:19;;;;;;;49.00;25.80;;;;;;;0.73;73.07;98974.81;4916054;28;101357;-87
2022/11/21 07:44:45;;;;;;;44.50;24.00;;;;;;;0.73;73.05;98965.38;4947195;28;97772;-86
2022/11/21 07:47:10;;;;;;;48.60;24.07;;;;;;;0.57;72.63;98915.69;4935649;28;97026;-87
2022/11/21 07:49:36;;;;;;;46.40;23.23;;;;;;;0.83;72.77;98968.66;4936608;28;98176;-86
2022/11/21 07:52:01;;;;;;;42.33;23.03;;;;;;;0.60;73.25;98930.28;4919384;28;100242;-88
2022/11/21 07:54:27;;;;;;;37.47;20.13;;;;;;;0.73;73.03;98941.25;4940916;28;96797;-86
2022/11/21 07:56:52;;;;;;;37.80;20.93;;;;;;;0.65;73.10;98918.16;4936496;28;97037;-86
2022/11/21 07:59:18;;;;;;;38.27;19.43;;;;;;;0.90;73.42;98954.75;4934595;28;99727;-87
2022/11/21 08:01:43;;;;;;;37.43;21.23;;;;;;;1.03;73.14;98964.00;4905879;28;100266;-86
2022/11/21 08:04:09;;;;;;;36.53;19.13;;;;;;;1.02;73.10;98954.56;4940391;28;96903;-88
2022/11/21 08:06:34;;;;;;;38.70;21.60;;;;;;;1.11;73.22;98959.56;4919884;28;96813;-87
2022/11/21 08:09:00;;;;;;;32.70;19.17;;;;;;;1.17;73.50;98955.19;4919103;28;100764;-83
2022/11/21 08:11:25;;;;;;;34.40;18.83;;;;;;;1.10;73.35;98944.91;4933777;28;101645;-84
2022/11/21 08:13:51;;;;;;;39.00;20.07;;;;;;;1.10;73.89;98951.81;4921915;28;96959;-87
2022/11/21 08:16:16;;;;;;;43.07;21.20;;;;;;;1.13;73.42;98933.69;4922058;28;97030;-84
2022/11/21 08:18:42;;;;;;;49.53;23.37;;;;;;;1.29;73.79;98960.97;4910487;28;101344;-92
2022/11/21 08:21:07;;;;;;;39.70;23.10;;;;;;;1.51;72.94;98950.22;4938225;28;100150;-82
2022/11/21 08:23:33;;;;;;;42.33;22.03;;;;;;;1.68;72.60;98960.25;4936823;28;96815;-85
2022/11/21 08:25:58;;;;;;;36.43;19.77;;;;;;;1.78;71.92;98952.28;4938913;28;96776;-85
2022/11/21 08:28:24;;;;;;;43.93;22.00;;;;;;;1.76;72.62;98961.78;4936025;28;97452;-82
2022/11/21 08:30:49;;;;;;;39.80;21.90;;;;;;;1.83;72.46;98953.91;4934554;28;100445;-86
2022/11/21 08:33:15;;;;;;;37.80;19.93;;;;;;;1.76;72.93;98960.94;4938573;28;96739;-85
2022/11/21 08:35:41;;;;;;;35.03;20.77;;;;;;;1.74;72.70;98954.94;4919927;28;96812;-85
2022/11/21 08:38:07;;;;;;;38.27;20.60;;;;;;;1.68;73.59;98955.06;4953833;28;98473;-85
2022/11/21 08:40:34;;;;;;;42.63;22.30;;;;;;;1.93;72.78;98963.19;4938366;28;101444;-85
2022/11/21 08:43:07;;;;;;;46.77;23.77;;;;;;;2.00;72.90;98964.75;4934927;28;97167;-86
2022/11/21 08:45:33;;;;;;;40.80;20.63;;;;;;;1.99;73.33;98963.91;4915735;28;96763;-86
2022/11/21 08:47:59;;;;;;;38.57;21.37;;;;;;;2.13;72.72;98962.78;4937950;28;98484;-85
2022/11/21 08:50:25;;;;;;;37.07;20.23;;;;;;;2.01;73.46;98953.53;4938474;28;101681;-91
2022/11/21 08:52:51;;;;;;;37.07;20.03;;;;;;;2.06;73.13;98967.22;4938660;28;97019;-84
2022/11/21 08:55:16;;;;;;;36.00;19.23;;;;;;;2.02;73.56;98963.00;4937943;28;96830;-81
2022/11/21 08:57:42;;;;;;;30.47;15.77;;;;;;;1.91;74.15;98955.44;4938045;28;101678;-85
2022/11/21 09:00:11;;;;;;;28.77;14.87;;;;;;;1.99;74.05;98963.06;4944563;28;98092;-85
2022/11/21 09:02:36;;;;;;;27.67;14.63;;;;;;;2.07;73.81;98974.13;4939211;28;96764;-84
2022/11/21 09:05:02;;;;;;;31.33;17.20;;;;;;;2.23;73.72;98974.63;4938841;28;96818;-85
2022/11/21 09:07:27;;;;;;;28.20;15.17;;;;;;;2.25;73.89;98960.78;4922710;28;101670;-84
2022/11/21 09:09:53;;;;;;;30.57;16.47;;;;;;;2.17;73.43;98943.69;4941157;28;101198;-89
2022/11/21 09:12:18;;;;;;;27.23;14.93;;;;;;;2.17;73.34;98951.47;4958648;28;97597;-89
2022/11/21 09:20:12;;;;;;;24.63;13.50;;;;;;;2.47;73.83;98971.53;4945082;28;98340;-89
2022/11/21 09:22:38;;;;;;;26.80;13.97;;;;;;;2.37;74.21;98970.00;4936904;28;96865;-90
2022/11/21 09:25:04;;;;;;;23.67;13.47;;;;;;;2.36;73.94;98978.69;4940378;28;96898;-87
2022/11/21 09:27:29;;;;;;;23.73;12.87;;;;;;;2.34;74.32;98959.72;4922528;28;99918;-82
2022/11/21 09:29:55;;;;;;;27.50;14.60;;;;;;;2.63;74.10;98974.59;4935074;28;97891;-82
2022/11/21 09:32:21;;;;;;;26.60;13.23;;;;;;;2.63;73.91;98977.19;4922630;28;97293;-81
2022/11/21 09:34:46;;;;;;;23.90;14.20;;;;;;;2.54;74.49;98967.03;4949643;28;97145;-81
2022/11/21 09:37:12;;;;;;;26.57;14.37;;;;;;;2.58;74.38;98960.88;4950738;28;98066;-82
2022/11/21 09:39:37;;;;;;;24.37;14.67;;;;;;;2.56;74.27;98969.59;4932369;28;101241;-84
2022/11/21 09:42:09;;;;;;;29.43;14.00;;;;;;;2.61;74.98;98986.72;4930589;28;97274;-88
2022/11/21 09:44:49;;;;;;;26.25;15.48;;;;;;;2.64;74.76;98976.28;4949948;28;96699;-89
2022/11/21 09:47:24;;;;;;;25.90;15.57;;;;;;;2.69;74.55;98953.72;4936554;28;101796;-92
2022/11/21 09:49:57;;;;;;;26.93;15.67;;;;;;;2.74;74.87;98982.13;4940450;28;101295;-93
2022/11/21 09:52:29;;;;;;;26.70;13.93;;;;;;;2.78;74.44;98975.13;4932233;28;96821;-88
2022/11/21 09:54:56;;;;;;;;;;;;;;;2.77;74.42;98986.41;4933208;28;96932;-88
2022/11/21 09:57:23;;;;;;;20.30;12.33;;;;;;;2.79;74.50;98982.84;4929095;28;100399;-89
2022/11/21 09:59:49;;;;;;;21.60;12.43;;;;;;;2.84;74.47;98974.97;4932822;28;100738;-90
2022/11/21 10:02:17;;;;;;;20.60;11.97;;;;;;;2.76;74.40;98936.28;4939148;28;96846;-89
2022/11/21 10:04:44;;;;;;;21.63;12.30;;;;;;;3.04;74.68;98983.13;4935566;28;97154;-90
2022/11/21 10:07:21;;;;;;;19.87;12.40;;;;;;;3.11;74.60;98963.94;4935164;28;97422;-89
2022/11/21 10:10:01;;;;;;;22.40;12.63;;;;;;;3.17;74.79;98947.34;4921436;28;100687;-89
2022/11/21 10:12:46;;;;;;;19.47;11.20;;;;;;;3.54;74.48;98968.00;4937283;28;96705;-90
2022/11/21 10:15:39;;;;;;;20.93;11.53;;;;;;;3.95;73.26;98963.38;4952115;28;96984;-89
2022/11/21 10:18:23;;;;;;;19.90;12.23;;;;;;;4.14;72.86;98963.72;4935656;28;102032;-84
2022/11/21 10:21:25;;;;;;;21.67;11.17;;;;;;;4.05;73.21;98967.44;4938043;28;99588;-88
2022/11/21 10:24:25;;;;;;;20.60;10.93;;;;;;;4.06;73.37;98960.50;4947501;28;97625;-89
2022/11/21 10:26:57;;;;;;;22.60;11.60;;;;;;;3.99;73.52;98954.63;4935039;28;97426;-87
2022/11/21 10:29:41;;;;;;;17.83;10.37;;;;;;;3.94;73.83;98972.09;4938279;28;101184;-87
2022/11/21 10:32:16;;;;;;;17.77;10.43;;;;;;;4.00;73.45;98948.53;4958723;28;101273;-86
2022/11/21 10:34:42;;;;;;;18.30;10.67;;;;;;;4.17;73.33;98968.81;4930219;28;97154;-88
2022/11/21 10:37:15;;;;;;;17.17;10.77;;;;;;;4.24;73.04;98967.72;4920957;28;96923;-91
2022/11/21 10:39:46;;;;;;;16.23;9.50;;;;;;;4.21;73.33;98978.22;4936203;28;101547;-87
2022/11/21 10:42:35;;;;;;;14.90;8.67;;;;;;;4.19;73.07;98973.97;4925204;28;100669;-88
2022/11/21 10:45:18;;;;;;;13.27;8.07;;;;;;;4.07;73.60;98972.56;4938035;28;97313;-87
2022/11/21 10:47:51;;;;;;;13.10;7.93;;;;;;;4.24;73.51;98974.69;4950684;28;97117;-84
2022/11/21 10:50:46;;;;;;;15.77;8.30;;;;;;;4.18;73.46;98972.28;4925179;28;101875;-86
2022/11/21 10:56:11;;;;;;;16.37;8.30;;;;;;;4.05;73.98;98970.03;4936505;28;96786;-85
2022/11/21 10:58:43;;;;;;;12.87;6.77;;;;;;;4.04;74.24;98973.53;4934747;28;97318;-86
2022/11/21 11:01:25;;;;;;;15.82;8.95;;;;;;;4.04;73.96;98972.66;4934828;28;101650;-90
2022/11/21 11:04:10;;;;;;;21.40;9.60;;;;;;;4.09;73.78;98975.97;4930677;28;101795;-85
2022/11/21 11:06:37;;;;;;;12.17;7.53;;;;;;;4.24;73.46;98974.69;4953991;28;97105;-89
2022/11/21 11:09:03;;;;;;;11.60;6.60;;;;;;;4.16;73.46;98972.34;4932768;28;97044;-85
2022/11/21 11:11:29;;;;;;;14.77;8.53;;;;;;;4.10;74.08;98959.50;4928556;28;101728;-89
2022/11/21 11:13:57;;;;;;;14.03;7.93;;;;;;;4.05;73.55;98949.25;4943173;28;101146;-84
2022/11/21 11:16:25;;;;;;;17.17;8.37;;;;;;;4.16;73.62;98966.25;4905685;28;96788;-84
2022/11/21 11:19:14;;;;;;;20.17;9.97;;;;;;;4.25;73.52;98972.06;4936492;28;97267;-87
2022/11/21 11:21:40;;;;;;;18.57;8.83;;;;;;;4.34;73.25;98980.47;4943547;28;101388;-88
2022/11/21 11:24:08;;;;;;;12.40;7.30;;;;;;;4.35;73.66;98974.38;4940635;28;101620;-83
2022/11/21 11:26:48;;;;;;;17.40;9.50;;;;;;;4.38;73.14;98985.50;4948265;28;97161;-83
2022/11/21 11:29:22;;;;;;;13.27;7.23;;;;;;;4.36;73.53;98986.44;4933830;28;96716;-84
2022/11/21 11:32:16;;;;;;;13.77;7.93;;;;;;;4.37;73.63;98986.41;4932946;28;101685;-85
2022/11/21 11:34:59;;;;;;;14.07;6.90;;;;;;;4.41;73.68;98987.19;4926522;28;97673;-86
2022/11/21 11:37:37;;;;;;;14.57;6.40;;;;;;;4.47;73.17;98985.22;4933623;28;96971;-87